Time;durP1;ratioP1;P1;durP2;ratioP2;P2;SDS_P1;SDS_P2;PMS_P1;PMS_P2;Temp;Humidity;BMP_temperature;BMP_pressure;BME280_temperature;BME280_humidity;BME280_pressure;Samples;Min_cycle;Max_cycle;Signal;HPM_P1;HPM_P2
2023/03/15 00:00:35;;;;;;;;;;;18.10;77.40;;;;;;5067316;28;44074;-83
2023/03/15 00:03:03;;;;;;;;;;;17.90;78.10;;;;;;5067492;28;42813;-84
2023/03/15 00:05:28;;;;;;;;;;;18.00;78.10;;;;;;5066849;28;43720;-84
2023/03/15 00:07:54;;;;;;;;;;;18.00;77.30;;;;;;5066157;28;43037;-88
2023/03/15 00:10:19;;;;;;;;;;;17.90;77.90;;;;;;5067084;28;42956;-91
2023/03/15 00:12:45;;;;;;;;;;;18.00;78.10;;;;;;5066951;28;43086;-85
2023/03/15 00:15:13;;;;;;;;;;;18.00;77.30;;;;;;5048973;28;43728;-91
2023/03/15 00:17:38;;;;;;;;;;;18.10;77.90;;;;;;5067164;28;42962;-92
2023/03/15 00:20:05;;;;;;;;;;;18.20;78.30;;;;;;5066852;28;42946;-91
2023/03/15 00:22:30;;;;;;;;;;;17.90;77.50;;;;;;5048232;28;42901;-90
2023/03/15 00:24:56;;;;;;;;;;;17.90;77.50;;;;;;5067102;28;42765;-88
2023/03/15 00:27:21;;;;;;;;;;;18.00;77.30;;;;;;5066742;28;43057;-89
2023/03/15 00:29:47;;;;;;;;;;;18.10;78.00;;;;;;5066714;28;43519;-90
2023/03/15 00:32:12;;;;;;;;;;;18.20;77.50;;;;;;5065671;28;42992;-85
2023/03/15 00:34:38;;;;;;;;;;;18.30;78.10;;;;;;5068232;28;42872;-92
2023/03/15 00:37:04;;;;;;;;;;;18.00;78.10;;;;;;5087174;28;42957;-91
2023/03/15 00:39:29;;;;;;;;;;;18.10;77.80;;;;;;5086969;28;42912;-91
2023/03/15 00:41:55;;;;;;;;;;;17.90;77.90;;;;;;5086829;27;42886;-89
2023/03/15 00:44:23;;;;;;;;;;;17.80;77.80;;;;;;5086121;28;43183;-91
2023/03/15 00:46:51;;;;;;;;;;;18.10;77.90;;;;;;5085897;28;59662;-83
2023/03/15 00:49:17;;;;;;;;;;;18.00;77.90;;;;;;5086381;28;43654;-83
2023/03/15 00:51:42;;;;;;;;;;;18.10;78.00;;;;;;5086984;28;42776;-90
2023/03/15 00:54:08;;;;;;;;;;;18.00;78.10;;;;;;5087009;28;43794;-83
2023/03/15 00:56:33;;;;;;;;;;;17.90;77.20;;;;;;5086874;28;43341;-92
2023/03/15 00:58:59;;;;;;;;;;;18.10;78.40;;;;;;5086611;27;44183;-88
2023/03/15 01:01:25;;;;;;;;;;;18.00;77.90;;;;;;5084792;27;43021;-90
2023/03/15 01:03:51;;;;;;;;;;;18.10;77.90;;;;;;5086232;28;43654;-91
2023/03/15 01:06:21;;;;;;;;;;;18.00;77.80;;;;;;5086301;28;42930;-84
2023/03/15 01:08:47;;;;;;;;;;;17.90;77.80;;;;;;5086204;28;43096;-84
2023/03/15 01:11:14;;;;;;;;;;;18.10;77.90;;;;;;5086235;28;43029;-84
2023/03/15 01:13:39;;;;;;;;;;;18.10;77.80;;;;;;5086265;28;42894;-89
2023/03/15 01:16:05;;;;;;;;;;;18.10;78.00;;;;;;5086402;28;42892;-90
2023/03/15 01:18:31;;;;;;;;;;;18.00;77.40;;;;;;5086727;28;43651;-83
2023/03/15 01:20:57;;;;;;;;;;;18.10;77.30;;;;;;5086723;28;43079;-92
2023/03/15 01:23:22;;;;;;;;;;;18.10;77.90;;;;;;5086411;28;43528;-90
2023/03/15 01:25:48;;;;;;;;;;;18.00;78.00;;;;;;5077479;28;42986;-87
2023/03/15 01:28:14;;;;;;;;;;;18.00;77.80;;;;;;5063454;28;43504;-83
2023/03/15 01:30:39;;;;;;;;;;;18.20;78.00;;;;;;5065583;28;43541;-83
2023/03/15 01:33:05;;;;;;;;;;;17.90;77.90;;;;;;5066358;28;42949;-90
2023/03/15 01:35:30;;;;;;;;;;;18.10;78.20;;;;;;5065857;28;42950;-89
2023/03/15 01:37:56;;;;;;;;;;;17.90;77.70;;;;;;5076523;28;42957;-90
2023/03/15 01:40:21;;;;;;;;;;;18.10;77.40;;;;;;5085926;28;42985;-86
2023/03/15 01:43:11;;;;;;;;;;;18.10;78.20;;;;;;5086121;28;42946;-91
2023/03/15 01:45:55;;;;;;;;;;;18.10;76.70;;;;;;5085868;28;42897;-91
2023/03/15 01:48:22;;;;;;;;;;;18.10;76.80;;;;;;5085639;28;43959;-84
2023/03/15 01:50:48;;;;;;;;;;;17.90;77.80;;;;;;5085517;28;42977;-92
2023/03/15 01:53:14;;;;;;;;;;;18.10;78.00;;;;;;5084545;28;43345;-84
2023/03/15 01:55:40;;;;;;;;;;;18.20;78.00;;;;;;5066927;28;43082;-89
2023/03/15 01:58:05;;;;;;;;;;;18.10;77.90;;;;;;5085904;28;42780;-90
2023/03/15 02:00:31;;;;;;;;;;;18.10;77.90;;;;;;5085780;28;42938;-87
2023/03/15 02:03:00;;;;;;;;;;;18.00;77.90;;;;;;5085266;28;43347;-91
2023/03/15 02:05:28;;;;;;;;;;;18.10;78.00;;;;;;5086010;28;42876;-90
2023/03/15 02:07:54;;;;;;;;;;;18.10;77.90;;;;;;5066810;28;43028;-85
2023/03/15 02:10:34;;;;;;;;;;;18.10;77.90;;;;;;5085248;28;43229;-83
2023/03/15 02:13:01;;;;;;;;;;;18.20;76.80;;;;;;5085234;28;42896;-91
2023/03/15 02:15:26;;;;;;;;;;;18.10;77.90;;;;;;5085118;28;43141;-87
2023/03/15 02:17:52;;;;;;;;;;;18.10;78.10;;;;;;5084719;28;43762;-83
2023/03/15 02:20:26;;;;;;;;;;;18.10;78.00;;;;;;5085013;28;43029;-86
2023/03/15 02:22:56;;;;;;;;;;;18.00;77.80;;;;;;5083289;28;44302;-90
2023/03/15 02:25:38;;;;;;;;;;;18.10;76.60;;;;;;5084860;28;42890;-90
2023/03/15 02:28:05;;;;;;;;;;;18.00;76.60;;;;;;5085610;28;43291;-91
2023/03/15 02:30:30;;;;;;;;;;;18.00;77.70;;;;;;5084721;28;43541;-91
2023/03/15 02:32:57;;;;;;;;;;;18.00;77.80;;;;;;5084494;28;43512;-83
2023/03/15 02:35:24;;;;;;;;;;;18.00;77.70;;;;;;5084470;28;42969;-84
2023/03/15 02:37:49;;;;;;;;;;;18.50;78.00;;;;;;5085118;28;43637;-83
2023/03/15 02:40:16;;;;;;;;;;;18.10;77.80;;;;;;5085511;28;42907;-88
2023/03/15 02:42:42;;;;;;;;;;;18.10;77.80;;;;;;5066705;28;43926;-90
2023/03/15 02:45:08;;;;;;;;;;;18.30;78.10;;;;;;5085502;28;42875;-84
2023/03/15 02:47:33;;;;;;;;;;;18.10;77.50;;;;;;5085201;28;43585;-91
2023/03/15 02:49:59;;;;;;;;;;;18.00;77.70;;;;;;5085131;28;43011;-83
2023/03/15 02:52:25;;;;;;;;;;;18.10;77.90;;;;;;5085207;28;42864;-84
2023/03/15 02:54:50;;;;;;;;;;;18.30;77.80;;;;;;5084917;28;42851;-85
2023/03/15 02:57:17;;;;;;;;;;;18.10;77.80;;;;;;5066309;28;44687;-91
2023/03/15 02:59:42;;;;;;;;;;;18.00;77.60;;;;;;5084856;28;43115;-85
2023/03/15 03:02:10;;;;;;;;;;;18.10;77.80;;;;;;5084717;28;42829;-88
2023/03/15 03:04:36;;;;;;;;;;;18.10;77.60;;;;;;5084907;28;42964;-91
2023/03/15 03:07:02;;;;;;;;;;;18.10;77.70;;;;;;5084964;28;43410;-91
2023/03/15 03:09:27;;;;;;;;;;;18.20;77.70;;;;;;5085138;28;43044;-91
2023/03/15 03:11:53;;;;;;;;;;;18.10;77.60;;;;;;5084740;28;43914;-92
2023/03/15 03:14:18;;;;;;;;;;;18.10;77.10;;;;;;5085036;28;42900;-89
2023/03/15 03:16:44;;;;;;;;;;;18.00;77.60;;;;;;5084444;28;43012;-84
2023/03/15 03:19:11;;;;;;;;;;;18.20;77.90;;;;;;5065359;28;42773;-89
2023/03/15 03:21:37;;;;;;;;;;;18.20;77.70;;;;;;5084678;27;43448;-91
2023/03/15 03:24:02;;;;;;;;;;;18.10;77.60;;;;;;5087290;28;42858;-92
2023/03/15 03:26:31;;;;;;;;;;;18.20;77.60;;;;;;5088478;28;43430;-91
2023/03/15 03:28:57;;;;;;;;;;;18.20;77.70;;;;;;5069849;28;42840;-92
2023/03/15 03:31:24;;;;;;;;;;;18.20;77.70;;;;;;5088065;28;43362;-92
2023/03/15 03:33:49;;;;;;;;;;;18.10;77.60;;;;;;5087520;28;42899;-90
2023/03/15 03:36:15;;;;;;;;;;;18.10;77.70;;;;;;5087980;28;43528;-87
2023/03/15 03:38:41;;;;;;;;;;;18.20;77.70;;;;;;5069410;28;43176;-90
2023/03/15 03:41:07;;;;;;;;;;;18.10;77.00;;;;;;5087928;28;43441;-92
2023/03/15 03:43:33;;;;;;;;;;;18.00;77.50;;;;;;5087952;28;42855;-92
2023/03/15 03:45:58;;;;;;;;;;;18.20;77.70;;;;;;5087637;28;42919;-92
2023/03/15 03:48:24;;;;;;;;;;;18.10;78.20;;;;;;5087250;28;43113;-92
2023/03/15 03:50:49;;;;;;;;;;;18.30;77.70;;;;;;5086335;27;43017;-92
2023/03/15 03:53:15;;;;;;;;;;;18.20;77.60;;;;;;5068856;28;42959;-93
2023/03/15 03:55:41;;;;;;;;;;;18.10;77.10;;;;;;5087765;28;43464;-91
2023/03/15 03:58:07;;;;;;;;;;;18.10;76.90;;;;;;5069096;28;42980;-92
2023/03/15 04:00:33;;;;;;;;;;;18.10;77.40;;;;;;5087534;28;43496;-90
2023/03/15 04:03:00;;;;;;;;;;;18.10;77.40;;;;;;5087878;28;42939;-91
2023/03/15 04:05:26;;;;;;;;;;;18.30;77.70;;;;;;5087206;28;44476;-91
2023/03/15 04:07:52;;;;;;;;;;;18.20;77.50;;;;;;5087078;28;43088;-90
2023/03/15 04:10:17;;;;;;;;;;;18.10;77.50;;;;;;5087642;28;42936;-88
2023/03/15 04:12:43;;;;;;;;;;;18.30;77.60;;;;;;5086738;27;42842;-92
2023/03/15 04:15:12;;;;;;;;;;;18.20;76.80;;;;;;5087644;28;43678;-91
2023/03/15 04:17:38;;;;;;;;;;;18.20;77.20;;;;;;5087316;28;43255;-92
2023/03/15 04:20:10;;;;;;;;;;;18.20;77.20;;;;;;5069068;28;43333;-90
2023/03/15 04:22:36;;;;;;;;;;;18.10;77.00;;;;;;5087004;28;42942;-91
2023/03/15 04:25:02;;;;;;;;;;;18.20;77.40;;;;;;5086365;28;42992;-91
2023/03/15 04:27:28;;;;;;;;;;;18.20;77.50;;;;;;5071073;28;42947;-91
2023/03/15 04:29:53;;;;;;;;;;;18.10;77.40;;;;;;5071909;28;43914;-92
2023/03/15 04:32:19;;;;;;;;;;;18.10;76.70;;;;;;5087387;28;42997;-89
2023/03/15 04:34:44;;;;;;;;;;;18.20;77.50;;;;;;5086812;27;43743;-92
2023/03/15 04:37:10;;;;;;;;;;;18.20;76.80;;;;;;5087214;28;42808;-91
2023/03/15 04:39:35;;;;;;;;;;;18.20;77.50;;;;;;5086986;28;43027;-91
2023/03/15 04:42:01;;;;;;;;;;;18.30;77.50;;;;;;5087021;28;42878;-91
2023/03/15 04:44:26;;;;;;;;;;;18.20;78.10;;;;;;5085384;28;43814;-90
2023/03/15 04:46:53;;;;;;;;;;;18.10;76.80;;;;;;5068608;28;43049;-91
2023/03/15 04:49:18;;;;;;;;;;;18.10;77.40;;;;;;5086915;28;43259;-91
2023/03/15 04:51:44;;;;;;;;;;;18.20;77.40;;;;;;5086884;28;42909;-91
2023/03/15 04:54:09;;;;;;;;;;;18.20;76.70;;;;;;5086357;28;42926;-91
2023/03/15 04:56:36;;;;;;;;;;;18.10;77.60;;;;;;5086885;28;42918;-91
2023/03/15 04:59:02;;;;;;;;;;;18.10;77.50;;;;;;5086323;28;44007;-91
2023/03/15 05:01:29;;;;;;;;;;;18.10;77.40;;;;;;5086714;28;43012;-91
2023/03/15 05:03:55;;;;;;;;;;;18.30;77.50;;;;;;5086934;28;43053;-91
2023/03/15 05:06:20;;;;;;;;;;;18.10;77.20;;;;;;5085755;27;42885;-89
2023/03/15 05:08:46;;;;;;;;;;;18.20;77.40;;;;;;5082936;28;43568;-92
2023/03/15 05:11:12;;;;;;;;;;;18.20;77.40;;;;;;5086386;28;42877;-90
2023/03/15 05:13:37;;;;;;;;;;;18.20;76.70;;;;;;5086336;28;42874;-91
2023/03/15 05:16:03;;;;;;;;;;;18.30;77.40;;;;;;5086481;28;43076;-91
2023/03/15 05:18:28;;;;;;;;;;;18.20;77.20;;;;;;5086534;28;43617;-91
2023/03/15 05:20:54;;;;;;;;;;;18.20;77.20;;;;;;5085471;28;42951;-91
2023/03/15 05:23:22;;;;;;;;;;;18.10;77.10;;;;;;5085217;28;42996;-91
2023/03/15 05:25:54;;;;;;;;;;;18.20;77.30;;;;;;5086272;28;42954;-90
2023/03/15 05:28:20;;;;;;;;;;;18.20;76.00;;;;;;5086138;28;42900;-91
2023/03/15 05:30:46;;;;;;;;;;;18.10;77.10;;;;;;5086282;28;42961;-93
2023/03/15 05:33:12;;;;;;;;;;;18.20;76.70;;;;;;5086103;28;42966;-92
2023/03/15 05:35:38;;;;;;;;;;;18.20;77.30;;;;;;5087146;28;42875;-91
2023/03/15 05:38:04;;;;;;;;;;;18.30;77.20;;;;;;5086389;28;42950;-91
2023/03/15 05:40:31;;;;;;;;;;;18.30;76.50;;;;;;5086575;28;42923;-92
2023/03/15 05:42:56;;;;;;;;;;;18.20;77.10;;;;;;5086330;28;42943;-92
2023/03/15 05:45:22;;;;;;;;;;;18.20;77.10;;;;;;5085650;27;42908;-92
2023/03/15 05:47:47;;;;;;;;;;;18.20;77.20;;;;;;5086058;28;43557;-92
2023/03/15 05:50:13;;;;;;;;;;;18.20;76.50;;;;;;5085018;28;42914;-92
2023/03/15 05:52:38;;;;;;;;;;;18.30;77.30;;;;;;5092402;28;42966;-91
2023/03/15 05:55:04;;;;;;;;;;;18.20;76.40;;;;;;5085471;28;42339;-90
2023/03/15 05:57:30;;;;;;;;;;;18.30;76.40;;;;;;5103980;27;42616;-91
2023/03/15 05:59:55;;;;;;;;;;;18.30;76.40;;;;;;5105775;28;42317;-88
2023/03/15 06:02:21;;;;;;;;;;;18.30;76.40;;;;;;5082460;28;44571;-91
2023/03/15 06:04:46;;;;;;;;;;;18.20;76.40;;;;;;5104999;28;42295;-91
2023/03/15 06:07:12;;;;;;;;;;;18.20;76.40;;;;;;5088873;27;42942;-89
2023/03/15 06:09:37;;;;;;;;;;;18.10;76.30;;;;;;5069036;28;42928;-91
2023/03/15 06:12:03;;;;;;;;;;;18.80;77.60;;;;;;5085051;28;43710;-91
2023/03/15 06:14:29;;;;;;;;;;;18.30;76.70;;;;;;5084769;28;42963;-88
2023/03/15 06:16:54;;;;;;;;;;;18.10;77.00;;;;;;5071392;27;43460;-83
2023/03/15 06:19:22;;;;;;;;;;;18.20;76.40;;;;;;5065427;28;42912;-80
2023/03/15 06:21:48;;;;;;;;;;;18.10;71.80;;;;;;5070388;28;42927;-88
2023/03/15 06:24:20;;;;;;;;;;;17.90;71.90;;;;;;5083521;28;43163;-85
2023/03/15 06:26:48;;;;;;;;;;;18.00;72.00;;;;;;5082581;27;42974;-91
2023/03/15 06:29:15;;;;;;;;;;;18.10;74.00;;;;;;5080941;28;43309;-88
2023/03/15 06:31:40;;;;;;;;;;;18.10;76.40;;;;;;5081069;28;44205;-91
2023/03/15 06:34:06;;;;;;;;;;;18.30;76.70;;;;;;5076668;28;43014;-92
2023/03/15 06:36:31;;;;;;;;;;;18.30;76.70;;;;;;5065935;28;43449;-93
2023/03/15 06:38:57;;;;;;;;;;;18.50;76.90;;;;;;5066738;28;42863;-92
2023/03/15 06:41:22;;;;;;;;;;;18.50;77.00;;;;;;5085536;28;42989;-93
2023/03/15 06:43:48;;;;;;;;;;;18.10;76.70;;;;;;5083496;28;42935;-92
2023/03/15 06:46:13;;;;;;;;;;;18.20;76.80;;;;;;5072835;27;44637;-93
2023/03/15 06:48:39;;;;;;;;;;;18.20;76.70;;;;;;5073857;28;42935;-94
2023/03/15 06:51:05;;;;;;;;;;;18.30;76.60;;;;;;5083142;28;43095;-94
2023/03/15 06:53:30;;;;;;;;;;;18.20;76.70;;;;;;5085318;28;42929;-91
2023/03/15 06:55:56;;;;;;;;;;;18.20;76.60;;;;;;5076764;28;43186;-84
2023/03/15 06:58:21;;;;;;;;;;;18.20;76.00;;;;;;5067588;28;42886;-83
2023/03/15 07:00:48;;;;;;;;;;;18.20;76.60;;;;;;5068440;28;43527;-81
2023/03/15 07:03:13;;;;;;;;;;;18.20;76.40;;;;;;5077788;28;42815;-81
2023/03/15 07:05:39;;;;;;;;;;;18.20;75.90;;;;;;5076383;28;44012;-80
2023/03/15 07:08:05;;;;;;;;;;;18.20;76.50;;;;;;5074219;28;43161;-81
2023/03/15 07:10:30;;;;;;;;;;;18.20;76.60;;;;;;5076298;28;43560;-82
2023/03/15 07:12:56;;;;;;;;;;;18.30;76.50;;;;;;5066110;28;43146;-82
2023/03/15 07:15:21;;;;;;;;;;;18.30;76.70;;;;;;5065215;28;45373;-77
2023/03/15 07:17:47;;;;;;;;;;;18.20;76.60;;;;;;5067443;28;42923;-79
2023/03/15 07:20:12;;;;;;;;;;;18.20;75.90;;;;;;5066872;28;44306;-78
2023/03/15 07:22:38;;;;;;;;;;;18.20;76.40;;;;;;5067123;28;42889;-76
2023/03/15 07:25:06;;;;;;;;;;;18.10;76.20;;;;;;5067612;28;43417;-81
2023/03/15 07:27:32;;;;;;;;;;;18.20;76.10;;;;;;5068110;28;42896;-81
2023/03/15 07:29:57;;;;;;;;;;;18.10;76.30;;;;;;5067554;28;42801;-83
2023/03/15 07:32:23;;;;;;;;;;;18.10;76.30;;;;;;5067061;28;42972;-82
2023/03/15 07:34:48;;;;;;;;;;;18.20;76.20;;;;;;5067237;28;42908;-80
2023/03/15 07:37:14;;;;;;;;;;;18.30;76.40;;;;;;5067984;28;42822;-82
2023/03/15 07:39:40;;;;;;;;;;;18.10;76.10;;;;;;5067659;28;42876;-82
2023/03/15 07:42:06;;;;;;;;;;;18.20;76.20;;;;;;5069741;28;43034;-82
2023/03/15 07:44:31;;;;;;;;;;;18.20;76.10;;;;;;5075121;28;43481;-82
2023/03/15 07:46:57;;;;;;;;;;;18.20;76.30;;;;;;5077027;28;42954;-82
2023/03/15 07:49:23;;;;;;;;;;;18.10;76.20;;;;;;5076867;28;42914;-79
2023/03/15 07:51:48;;;;;;;;;;;18.20;76.30;;;;;;5074670;28;42874;-79
2023/03/15 07:54:14;;;;;;;;;;;18.20;76.20;;;;;;5073841;28;44575;-80
2023/03/15 07:56:39;;;;;;;;;;;18.10;69.90;;;;;;5076751;28;43055;-79
2023/03/15 07:59:05;;;;;;;;;;;18.00;63.60;;;;;;5074730;28;43865;-80
2023/03/15 08:01:30;;;;;;;;;;;18.10;57.60;;;;;;5075529;28;43060;-81
2023/03/15 08:03:56;;;;;;;;;;;17.90;56.40;;;;;;5076480;28;43577;-81
2023/03/15 08:06:21;;;;;;;;;;;17.80;55.10;;;;;;5080901;28;42924;-81
2023/03/15 08:08:47;;;;;;;;;;;17.80;53.70;;;;;;5075926;27;43806;-80
2023/03/15 08:11:12;;;;;;;;;;;17.70;53.60;;;;;;5078717;28;43310;-79
2023/03/15 08:13:38;;;;;;;;;;;17.70;54.10;;;;;;5076879;28;43649;-80
2023/03/15 08:16:03;;;;;;;;;;;17.80;56.10;;;;;;5076243;28;42870;-80
2023/03/15 08:18:29;;;;;;;;;;;17.80;57.60;;;;;;5078417;27;43035;-90
2023/03/15 08:20:54;;;;;;;;;;;18.00;57.90;;;;;;5083834;27;43097;-90
2023/03/15 08:23:20;;;;;;;;;;;18.10;58.50;;;;;;5100435;27;43034;-89
2023/03/15 08:25:46;;;;;;;;;;;18.10;57.70;;;;;;5087175;27;43208;-90
2023/03/15 08:28:11;;;;;;;;;;;18.00;56.20;;;;;;5106443;27;43574;-91
2023/03/15 08:30:37;;;;;;;;;;;18.50;56.10;;;;;;5105257;27;43130;-92
2023/03/15 08:33:02;;;;;;;;;;;18.20;54.50;;;;;;5098900;27;43925;-85
2023/03/15 08:35:29;;;;;;;;;;;18.30;55.80;;;;;;5086695;28;43020;-86
2023/03/15 08:37:55;;;;;;;;;;;18.20;57.20;;;;;;5083845;28;44330;-86
2023/03/15 08:40:23;;;;;;;;;;;18.30;56.80;;;;;;5084764;28;43010;-86
2023/03/15 08:42:49;;;;;;;;;;;18.10;52.90;;;;;;5086823;28;42826;-86
2023/03/15 08:45:15;;;;;;;;;;;18.30;54.50;;;;;;5086974;28;43086;-85
2023/03/15 08:47:41;;;;;;;;;;;18.30;55.20;;;;;;5086748;28;42919;-86
2023/03/15 08:50:08;;;;;;;;;;;18.20;54.60;;;;;;5087100;28;42907;-86
2023/03/15 08:52:33;;;;;;;;;;;18.30;53.40;;;;;;5086274;28;43041;-85
2023/03/15 08:54:59;;;;;;;;;;;18.30;54.60;;;;;;5086569;28;42970;-85
2023/03/15 08:57:25;;;;;;;;;;;18.10;55.00;;;;;;5086392;28;44727;-85
2023/03/15 08:59:51;;;;;;;;;;;18.20;50.90;;;;;;5085145;28;42998;-85
2023/03/15 09:02:17;;;;;;;;;;;18.40;52.70;;;;;;5085305;28;44722;-85
2023/03/15 09:04:42;;;;;;;;;;;18.30;52.80;;;;;;5085199;28;42930;-85
2023/03/15 09:07:08;;;;;;;;;;;18.30;52.50;;;;;;5086261;28;43501;-84
2023/03/15 09:09:33;;;;;;;;;;;18.20;53.20;;;;;;5085492;28;42963;-84
2023/03/15 09:11:59;;;;;;;;;;;18.20;52.30;;;;;;5086719;28;44010;-84
2023/03/15 09:14:24;;;;;;;;;;;18.10;51.80;;;;;;5086704;28;42844;-84
2023/03/15 09:16:51;;;;;;;;;;;18.10;52.70;;;;;;5068147;28;44450;-92
2023/03/15 09:19:16;;;;;;;;;;;18.20;48.70;;;;;;5086616;28;42967;-94
2023/03/15 09:21:44;;;;;;;;;;;18.20;48.50;;;;;;5086596;27;43525;-91
2023/03/15 09:24:09;;;;;;;;;;;18.10;50.40;;;;;;5087812;28;42974;-94
2023/03/15 09:26:35;;;;;;;;;;;18.20;50.90;;;;;;5087299;28;42967;-92
2023/03/15 09:29:00;;;;;;;;;;;18.20;49.30;;;;;;5087123;28;43483;-94
2023/03/15 09:31:26;;;;;;;;;;;18.30;50.90;;;;;;5086320;28;43538;-92
2023/03/15 09:33:51;;;;;;;;;;;18.20;51.10;;;;;;5089053;28;42781;-90
2023/03/15 09:36:17;;;;;;;;;;;18.30;50.90;;;;;;5086704;28;43081;-93
2023/03/15 09:38:43;;;;;;;;;;;18.20;50.70;;;;;;5085829;28;42896;-91
2023/03/15 09:41:27;;;;;;;;;;;18.20;51.30;;;;;;5086756;28;44057;-92
2023/03/15 09:44:04;;;;;;;;;;;18.20;47.90;;;;;;5087103;28;42949;-92
2023/03/15 09:46:38;;;;;;;;;;;18.30;49.20;;;;;;5086578;28;43832;-92
2023/03/15 09:49:18;;;;;;;;;;;18.20;49.30;;;;;;5086298;28;42714;-92
2023/03/15 09:51:47;;;;;;;;;;;18.20;46.30;;;;;;5086281;28;43444;-91
2023/03/15 09:54:23;;;;;;;;;;;18.20;49.40;;;;;;5086599;28;43124;-91
2023/03/15 09:56:56;;;;;;;;;;;18.10;47.70;;;;;;5086360;28;43909;-93
2023/03/15 09:59:28;;;;;;;;;;;18.30;48.90;;;;;;5086150;28;42912;-92
2023/03/15 10:01:55;;;;;;;;;;;18.30;47.10;;;;;;5086569;28;43603;-92
2023/03/15 10:04:28;;;;;;;;;;;18.20;49.20;;;;;;5086270;28;43058;-92
2023/03/15 10:06:58;;;;;;;;;;;18.20;47.40;;;;;;5084595;28;44629;-91
2023/03/15 10:09:25;;;;;;;;;;;18.30;48.20;;;;;;5086295;28;42950;-93
2023/03/15 10:12:09;;;;;;;;;;;18.20;46.50;;;;;;5086111;28;42865;-95
2023/03/15 10:14:43;;;;;;;;;;;18.30;46.80;;;;;;5085361;28;42954;-90
2023/03/15 10:17:13;;;;;;;;;;;18.00;48.30;;;;;;5086063;28;42895;-82
2023/03/15 10:19:43;;;;;;;;;;;18.10;47.90;;;;;;5086394;28;42818;-92
2023/03/15 10:22:18;;;;;;;;;;;18.20;46.10;;;;;;5086560;28;43405;-91
2023/03/15 10:24:43;;;;;;;;;;;17.90;43.50;;;;;;5085963;28;42823;-94
2023/03/15 10:27:20;;;;;;;;;;;17.90;50.80;;;;;;5086109;28;43034;-91
2023/03/15 10:29:47;;;;;;;;;;;18.00;53.50;;;;;;5085793;28;43575;-90
2023/03/15 10:32:16;;;;;;;;;;;17.60;56.20;;;;;;5085129;28;43037;-93
2023/03/15 10:34:43;;;;;;;;;;;17.40;57.60;;;;;;5085554;28;42968;-87
2023/03/15 10:37:09;;;;;;;;;;;17.30;58.30;;;;;;5085919;28;42926;-94
2023/03/15 10:39:34;;;;;;;;;;;17.30;59.20;;;;;;5084440;28;43024;-91
2023/03/15 10:42:01;;;;;;;;;;;17.10;59.80;;;;;;5085146;28;43514;-89
2023/03/15 10:44:27;;;;;;;;;;;17.40;60.60;;;;;;5085535;28;42906;-90
2023/03/15 10:46:59;;;;;;;;;;;17.10;60.70;;;;;;5084407;28;44735;-92
2023/03/15 10:49:32;;;;;;;;;;;17.10;59.60;;;;;;5086100;28;43021;-92
2023/03/15 10:51:57;;;;;;;;;;;17.10;61.00;;;;;;5085746;28;43164;-90
2023/03/15 10:54:23;;;;;;;;;;;17.10;61.00;;;;;;5084516;28;42954;-87
2023/03/15 10:57:05;;;;;;;;;;;17.30;61.10;;;;;;5086480;28;42990;-91
2023/03/15 10:59:32;;;;;;;;;;;17.00;60.20;;;;;;5094467;27;43473;-84
2023/03/15 11:02:10;;;;;;;;;;;17.10;61.40;;;;;;5085560;27;43060;-88
2023/03/15 11:04:40;;;;;;;;;;;17.10;60.30;;;;;;5084507;28;43017;-87
2023/03/15 11:07:06;;;;;;;;;;;17.30;61.60;;;;;;5083893;28;43515;-87
2023/03/15 11:09:39;;;;;;;;;;;17.30;60.80;;;;;;5084153;27;42701;-80
2023/03/15 11:12:09;;;;;;;;;;;17.40;60.50;;;;;;5104229;27;43615;-83
2023/03/15 11:14:40;;;;;;;;;;;17.40;60.60;;;;;;5104132;27;42958;-87
2023/03/15 11:17:06;;;;;;;;;;;17.30;60.00;;;;;;5104321;27;43069;-87
2023/03/15 11:19:52;;;;;;;;;;;17.40;61.00;;;;;;5093527;27;43040;-87
2023/03/15 11:22:18;;;;;;;;;;;17.30;61.30;;;;;;5084780;27;44601;-82
2023/03/15 11:24:44;;;;;;;;;;;17.40;61.80;;;;;;5104199;27;43012;-81
2023/03/15 11:27:13;;;;;;;;;;;17.40;60.90;;;;;;5104256;27;42812;-79
2023/03/15 11:29:48;;;;;;;;;;;17.50;60.30;;;;;;5093761;27;42971;-80
2023/03/15 11:32:17;;;;;;;;;;;17.50;60.50;;;;;;5104485;27;43037;-80
2023/03/15 11:34:42;;;;;;;;;;;17.40;61.10;;;;;;5104864;27;42807;-84
2023/03/15 11:37:13;;;;;;;;;;;17.40;60.00;;;;;;5103623;27;42852;-85
2023/03/15 11:39:55;;;;;;;;;;;17.50;60.50;;;;;;5103375;27;42979;-83
2023/03/15 11:42:34;;;;;;;;;;;17.50;58.70;;;;;;5097408;27;42912;-83
2023/03/15 11:45:05;;;;;;;;;;;18.00;59.40;;;;;;5088522;27;42879;-83
2023/03/15 11:47:41;;;;;;;;;;;17.40;58.50;;;;;;5107913;27;43254;-80
2023/03/15 11:50:10;;;;;;;;;;;17.30;58.10;;;;;;5102876;27;43009;-83
2023/03/15 11:52:36;;;;;;;;;;;17.30;59.60;;;;;;5098212;27;42992;-83
2023/03/15 11:55:02;;;;;;;;;;;17.30;60.80;;;;;;5107912;27;42810;-83
2023/03/15 11:57:28;;;;;;;;;;;17.10;60.80;;;;;;5107786;27;43582;-83
2023/03/15 11:59:54;;;;;;;;;;;17.30;60.80;;;;;;5102810;27;43000;-83
2023/03/15 12:02:20;;;;;;;;;;;17.20;60.40;;;;;;5087338;28;42864;-84
2023/03/15 12:04:49;;;;;;;;;;;17.20;60.40;;;;;;5087400;28;42844;-83
2023/03/15 12:07:18;;;;;;;;;;;17.40;59.10;;;;;;5098726;27;43472;-84
2023/03/15 12:09:47;;;;;;;;;;;17.20;57.60;;;;;;5100967;27;42852;-84
2023/03/15 12:12:33;;;;;;;;;;;17.40;57.00;;;;;;5097983;27;43827;-83
2023/03/15 12:15:04;;;;;;;;;;;17.40;58.30;;;;;;5106834;27;43162;-82
2023/03/15 12:17:50;;;;;;;;;;;17.50;55.80;;;;;;5103232;27;43555;-84
2023/03/15 12:20:18;;;;;;;;;;;17.40;56.50;;;;;;5099546;27;43018;-80
2023/03/15 12:22:49;;;;;;;;;;;17.50;54.60;;;;;;5107525;27;43004;-84
2023/03/15 12:25:19;;;;;;;;;;;17.40;52.30;;;;;;5098945;27;43286;-83
2023/03/15 12:27:50;;;;;;;;;;;17.30;54.40;;;;;;5087639;27;44277;-83
2023/03/15 12:30:21;;;;;;;;;;;17.40;53.10;;;;;;5107711;27;42955;-85
2023/03/15 12:32:49;;;;;;;;;;;17.30;54.20;;;;;;5099037;27;43022;-84
2023/03/15 12:35:16;;;;;;;;;;;17.50;52.00;;;;;;5084710;28;43018;-82
2023/03/15 12:37:46;;;;;;;;;;;17.40;53.20;;;;;;5088686;27;42915;-80
2023/03/15 12:40:14;;;;;;;;;;;17.60;49.30;;;;;;5103261;27;42985;-84
2023/03/15 12:42:40;;;;;;;;;;;17.50;49.20;;;;;;5091034;27;43680;-84
2023/03/15 12:45:14;;;;;;;;;;;17.60;48.30;;;;;;5099975;27;43101;-84
2023/03/15 12:47:43;;;;;;;;;;;17.60;49.20;;;;;;5085151;28;44865;-84
2023/03/15 12:50:27;;;;;;;;;;;17.80;51.00;;;;;;5092238;27;42955;-83
2023/03/15 12:52:57;;;;;;;;;;;17.80;50.80;;;;;;5103636;27;43148;-83
2023/03/15 12:55:23;;;;;;;;;;;17.80;51.10;;;;;;5106354;27;42970;-84
2023/03/15 12:57:51;;;;;;;;;;;18.00;50.90;;;;;;5106412;27;43322;-84
2023/03/15 13:00:20;;;;;;;;;;;17.90;50.10;;;;;;5106457;27;42989;-85
2023/03/15 13:02:45;;;;;;;;;;;18.10;50.50;;;;;;5106277;27;43523;-86
2023/03/15 13:05:12;;;;;;;;;;;18.00;47.40;;;;;;5100475;27;42952;-86
2023/03/15 13:07:43;;;;;;;;;;;17.90;48.50;;;;;;5095107;27;43653;-87
2023/03/15 13:10:18;;;;;;;;;;;17.90;46.20;;;;;;5095630;27;42875;-81
2023/03/15 13:12:51;;;;;;;;;;;18.00;47.10;;;;;;5095558;27;42974;-85
2023/03/15 13:15:35;;;;;;;;;;;18.00;47.80;;;;;;5096046;27;43052;-83
2023/03/15 13:18:16;;;;;;;;;;;18.00;47.90;;;;;;5098553;27;42978;-84
2023/03/15 13:20:42;;;;;;;;;;;18.00;45.40;;;;;;5103747;27;43039;-85
2023/03/15 13:23:16;;;;;;;;;;;17.90;43.90;;;;;;5106452;27;43065;-86
2023/03/15 13:25:55;;;;;;;;;;;17.90;45.00;;;;;;5106830;27;43018;-84
2023/03/15 13:28:24;;;;;;;;;;;18.10;43.50;;;;;;5097223;27;44673;-85
2023/03/15 13:30:53;;;;;;;;;;;17.90;45.40;;;;;;5093427;27;43243;-89
2023/03/15 13:33:23;;;;;;;;;;;17.90;43.70;;;;;;5085500;28;43056;-89
2023/03/15 13:35:48;;;;;;;;;;;17.80;44.80;;;;;;5085989;27;43033;-88
2023/03/15 13:38:26;;;;;;;;;;;17.90;45.80;;;;;;5099235;27;43002;-89
2023/03/15 13:40:52;;;;;;;;;;;17.90;44.60;;;;;;5088535;27;42977;-85
2023/03/15 13:43:17;;;;;;;;;;;17.90;45.90;;;;;;5085880;28;42891;-88
2023/03/15 13:45:43;;;;;;;;;;;18.00;45.10;;;;;;5095279;27;42990;-87
2023/03/15 13:48:10;;;;;;;;;;;18.00;43.80;;;;;;5097342;27;43390;-90
2023/03/15 13:50:36;;;;;;;;;;;17.90;42.90;;;;;;5067615;28;42895;-88
2023/03/15 13:53:01;;;;;;;;;;;17.70;43.20;;;;;;5104088;27;43676;-87
2023/03/15 13:55:30;;;;;;;;;;;17.80;43.50;;;;;;5106128;27;42894;-84
2023/03/15 13:57:58;;;;;;;;;;;17.70;43.00;;;;;;5103478;27;43126;-86
2023/03/15 14:00:24;;;;;;;;;;;17.80;43.60;;;;;;5106136;27;43063;-84
2023/03/15 14:02:57;;;;;;;;;;;17.60;44.00;;;;;;5103068;27;45445;-84
2023/03/15 14:05:26;;;;;;;;;;;17.70;45.40;;;;;;5104475;27;42863;-84
2023/03/15 14:08:14;;;;;;;;;;;17.80;45.00;;;;;;5103362;27;44020;-82
2023/03/15 14:10:40;;;;;;;;;;;17.70;45.40;;;;;;5080582;27;43148;-82
2023/03/15 14:13:20;;;;;;;;;;;17.80;46.50;;;;;;5084383;28;44434;-83
2023/03/15 14:15:45;;;;;;;;;;;17.70;43.50;;;;;;5104939;27;43038;-84
2023/03/15 14:18:11;;;;;;;;;;;18.60;45.00;;;;;;5098796;27;43635;-82